Time;durP1;ratioP1;P1;durP2;ratioP2;P2;SDS_P1;SDS_P2;PMS_P1;PMS_P2;Temp;Humidity;BMP_temperature;BMP_pressure;BME280_temperature;BME280_humidity;BME280_pressure;Samples;Min_cycle;Max_cycle;Signal;HPM_P1;HPM_P2
2022/06/20 00:01:05;;;;;;;0.00;0.00;;;;;;;14.05;100.00;100079.09;5070225;28;20674;-75
2022/06/20 00:03:35;;;;;;;0.17;0.17;;;;;;;13.93;100.00;100082.63;5070663;28;20170;-73
2022/06/20 00:06:00;;;;;;;1.17;1.07;;;;;;;14.05;100.00;100146.97;5070254;28;20475;-74
2022/06/20 00:08:25;;;;;;;0.00;0.00;;;;;;;14.11;100.00;100195.03;5069544;28;20178;-74
2022/06/20 00:10:52;;;;;;;1.17;0.97;;;;;;;14.10;100.00;100201.69;5070509;28;20179;-73
2022/06/20 00:13:25;;;;;;;0.00;0.00;;;;;;;14.08;100.00;100224.00;5070191;28;20189;-72
2022/06/20 00:15:52;;;;;;;0.73;0.30;;;;;;;14.04;100.00;100223.09;5070357;28;20600;-73
2022/06/20 00:18:18;;;;;;;0.03;0.03;;;;;;;14.00;100.00;100217.44;5051622;28;20174;-72
2022/06/20 00:20:44;;;;;;;0.00;0.00;;;;;;;13.98;100.00;100232.66;5070033;28;20213;-73
2022/06/20 00:23:10;;;;;;;0.30;0.30;;;;;;;13.93;100.00;100236.44;5069986;28;20257;-73
2022/06/20 00:25:36;;;;;;;0.00;0.00;;;;;;;13.88;100.00;100203.66;5070069;28;20680;-73
2022/06/20 00:28:02;;;;;;;0.33;0.33;;;;;;;13.83;100.00;100192.13;5069571;28;20174;-76
2022/06/20 00:30:27;;;;;;;1.80;0.53;;;;;;;13.78;100.00;100179.41;5069998;28;20179;-74
2022/06/20 00:32:53;;;;;;;0.00;0.00;;;;;;;13.73;100.00;100165.88;5070134;28;20187;-74
2022/06/20 00:35:19;;;;;;;0.13;0.13;;;;;;;13.66;100.00;100149.16;5069994;28;20239;-73
2022/06/20 00:37:44;;;;;;;0.00;0.00;;;;;;;13.66;100.00;100144.47;5067581;28;20186;-74
2022/06/20 00:40:21;;;;;;;0.00;0.00;;;;;;;13.69;100.00;100140.25;5076830;28;20206;-73
2022/06/20 00:42:47;;;;;;;0.10;0.10;;;;;;;13.73;100.00;100121.16;5090078;28;20180;-75
2022/06/20 00:45:13;;;;;;;0.00;0.00;;;;;;;13.85;100.00;100107.44;5090186;28;20174;-75
2022/06/20 00:47:40;;;;;;;0.00;0.00;;;;;;;13.98;100.00;100076.91;5090542;28;20192;-73
2022/06/20 00:50:17;;;;;;;0.00;0.00;;;;;;;14.04;100.00;100060.22;5090209;28;20181;-75
2022/06/20 00:52:52;;;;;;;0.00;0.00;;;;;;;13.89;100.00;100068.00;5090322;28;20177;-73
2022/06/20 00:55:28;;;;;;;0.00;0.00;;;;;;;13.86;100.00;100062.34;5089938;28;20200;-74
2022/06/20 00:58:00;;;;;;;0.27;0.20;;;;;;;13.97;100.00;100067.06;5089588;28;20186;-73
2022/06/20 01:00:31;;;;;;;0.00;0.00;;;;;;;14.07;100.00;100063.06;5089970;28;20292;-75
2022/06/20 01:03:03;;;;;;;0.00;0.00;;;;;;;13.89;100.00;100047.97;5090015;28;20166;-74
2022/06/20 01:05:41;;;;;;;0.10;0.10;;;;;;;13.92;100.00;100039.03;5090756;28;20177;-73
2022/06/20 01:08:15;;;;;;;0.00;0.00;;;;;;;13.88;100.00;100022.41;5093022;28;20169;-75
2022/06/20 01:11:05;;;;;;;0.00;0.00;;;;;;;13.84;100.00;100024.25;5093591;28;20178;-74
2022/06/20 01:13:31;;;;;;;0.00;0.00;;;;;;;13.94;100.00;100034.00;5093637;28;20182;-76
2022/06/20 01:16:25;;;;;;;0.10;0.10;;;;;;;13.94;100.00;100056.78;5093548;28;20176;-73
2022/06/20 01:18:51;;;;;;;0.00;0.00;;;;;;;14.12;100.00;100078.50;5084305;28;20200;-73
2022/06/20 01:21:20;;;;;;;0.10;0.10;;;;;;;14.26;100.00;100092.69;5093378;28;20213;-73
2022/06/20 01:24:00;;;;;;;0.30;0.30;;;;;;;13.73;100.00;100068.97;5093383;28;20182;-74
2022/06/20 01:26:37;;;;;;;0.00;0.00;;;;;;;13.74;100.00;100076.88;5093384;28;20365;-73
2022/06/20 01:29:05;;;;;;;0.00;0.00;;;;;;;13.91;100.00;100071.19;5093002;28;20259;-73
2022/06/20 01:31:35;;;;;;;0.00;0.00;;;;;;;13.67;100.00;100060.97;5093187;28;20178;-73
2022/06/20 01:34:01;;;;;;;0.00;0.00;;;;;;;13.66;100.00;100058.56;5093045;28;20174;-76
2022/06/20 01:39:16;;;;;;;0.00;0.00;;;;;;;13.35;100.00;100031.66;5092336;28;20527;-73
2022/06/20 01:44:26;;;;;;;0.00;0.00;;;;;;;13.72;100.00;100061.88;5093314;28;20537;-72
2022/06/20 01:46:51;;;;;;;0.00;0.00;;;;;;;13.78;100.00;100055.03;5092684;28;20185;-74
2022/06/20 01:49:22;;;;;;;0.00;0.00;;;;;;;13.99;100.00;100059.28;5092532;28;20207;-74
2022/06/20 01:52:07;;;;;;;0.00;0.00;;;;;;;14.00;100.00;100062.81;5093206;28;20178;-74
2022/06/20 01:54:42;;;;;;;0.00;0.00;;;;;;;13.64;100.00;100064.41;5092934;28;20617;-72
2022/06/20 01:57:10;;;;;;;0.00;0.00;;;;;;;13.83;100.00;100087.75;5092588;28;20192;-73
2022/06/20 01:59:42;;;;;;;0.00;0.00;;;;;;;13.86;100.00;100093.38;5092196;28;20202;-75
2022/06/20 02:02:07;;;;;;;0.00;0.00;;;;;;;13.93;100.00;100085.38;5092529;28;20796;-76
2022/06/20 02:04:36;;;;;;;0.00;0.00;;;;;;;14.10;100.00;100094.53;5092503;28;20189;-72
2022/06/20 02:07:04;;;;;;;0.00;0.00;;;;;;;13.78;100.00;100071.53;5092308;28;20269;-75
2022/06/20 02:09:30;;;;;;;0.00;0.00;;;;;;;13.75;100.00;100074.97;5091995;28;20184;-73
2022/06/20 02:11:55;;;;;;;0.00;0.00;;;;;;;13.51;100.00;100040.84;5092561;28;20181;-72
2022/06/20 02:14:30;;;;;;;0.00;0.00;;;;;;;13.45;100.00;100025.72;5092298;28;20174;-74
2022/06/20 02:17:01;;;;;;;0.43;0.43;;;;;;;13.32;100.00;99993.94;5091505;28;20704;-74
2022/06/20 02:19:34;;;;;;;0.00;0.00;;;;;;;13.31;100.00;99992.34;5091763;28;20225;-76
2022/06/20 02:22:04;;;;;;;3.87;1.50;;;;;;;13.06;100.00;99956.59;5092563;28;20567;-74
2022/06/20 02:24:38;;;;;;;0.00;0.00;;;;;;;13.26;100.00;100004.31;5092041;28;20642;-74
2022/06/20 02:27:10;;;;;;;0.00;0.00;;;;;;;13.44;100.00;100031.53;5091856;28;20657;-73
2022/06/20 02:29:35;;;;;;;0.00;0.00;;;;;;;13.21;100.00;100017.44;5091641;28;20616;-73
2022/06/20 02:32:14;;;;;;;0.00;0.00;;;;;;;13.13;100.00;99999.09;5092061;28;20218;-74
2022/06/20 02:34:40;;;;;;;0.20;0.20;;;;;;;13.07;100.00;100004.00;5091953;28;20185;-74
2022/06/20 02:37:11;;;;;;;0.00;0.00;;;;;;;13.38;100.00;100055.66;5091478;28;20174;-75
2022/06/20 02:39:38;;;;;;;0.00;0.00;;;;;;;13.48;100.00;100044.25;5091241;28;20293;-79
2022/06/20 02:42:09;;;;;;;0.00;0.00;;;;;;;13.61;100.00;100045.88;5091840;28;20189;-74
2022/06/20 02:44:35;;;;;;;0.00;0.00;;;;;;;13.50;100.00;100036.47;5091820;28;20546;-75
2022/06/20 02:47:04;;;;;;;0.20;0.20;;;;;;;13.27;100.00;100027.06;5091404;28;20186;-74
2022/06/20 02:49:32;;;;;;;0.00;0.00;;;;;;;13.14;100.00;100020.69;5073153;28;20177;-75
2022/06/20 02:52:00;;;;;;;0.00;0.00;;;;;;;13.18;100.00;100027.16;5073366;28;20629;-75
2022/06/20 02:54:29;;;;;;;0.00;0.00;;;;;;;13.34;100.00;100065.72;5073361;28;20209;-73
2022/06/20 02:57:01;;;;;;;0.00;0.00;;;;;;;13.50;100.00;100072.16;5091708;28;20174;-73
2022/06/20 02:59:32;;;;;;;0.20;0.20;;;;;;;13.40;100.00;100062.41;5091068;28;20201;-74
2022/06/20 03:02:08;;;;;;;0.30;0.30;;;;;;;13.13;100.00;100040.25;5091409;28;20268;-73
2022/06/20 03:04:36;;;;;;;0.20;0.20;;;;;;;12.97;100.00;100049.09;5091289;28;20212;-74
2022/06/20 03:07:14;;;;;;;0.00;0.00;;;;;;;13.16;100.00;100087.00;5091356;28;20174;-74
2022/06/20 03:09:43;;;;;;;0.40;0.40;;;;;;;13.04;100.00;100071.31;5090959;28;20637;-75
2022/06/20 03:12:09;;;;;;;0.00;0.00;;;;;;;13.19;100.00;100097.34;5091360;28;20385;-75
2022/06/20 03:14:42;;;;;;;0.30;0.30;;;;;;;13.29;100.00;100105.13;5091722;28;20173;-73
2022/06/20 03:17:09;;;;;;;0.00;0.00;;;;;;;13.22;100.00;100117.81;5090947;28;20165;-73
2022/06/20 03:19:40;;;;;;;4.27;1.50;;;;;;;13.18;100.00;100130.56;5090732;28;20193;-74
2022/06/20 03:22:11;;;;;;;0.77;0.47;;;;;;;13.17;100.00;100129.78;5091037;28;20178;-75
2022/06/20 03:24:37;;;;;;;0.00;0.00;;;;;;;13.19;100.00;100143.97;5091100;28;20200;-74
2022/06/20 03:27:06;;;;;;;1.57;1.47;;;;;;;13.10;100.00;100176.13;5090773;28;20174;-73
2022/06/20 03:29:35;;;;;;;0.30;0.30;;;;;;;13.05;100.00;100201.00;5089752;28;20202;-74
2022/06/20 03:32:00;;;;;;;0.80;0.80;;;;;;;13.02;100.00;100193.47;5090984;28;20572;-75
2022/06/20 03:34:26;;;;;;;1.33;0.87;;;;;;;12.94;100.00;100181.41;5091040;28;20185;-74
2022/06/20 03:36:51;;;;;;;0.60;0.60;;;;;;;12.90;100.00;100185.97;5090600;28;20178;-74
2022/06/20 03:39:19;;;;;;;0.00;0.00;;;;;;;12.86;100.00;100217.91;5089357;28;20261;-75
2022/06/20 03:41:45;;;;;;;0.00;0.00;;;;;;;12.79;100.00;100231.34;5090874;28;20702;-74
2022/06/20 03:44:28;;;;;;;0.50;0.50;;;;;;;12.73;100.00;100254.56;5090790;28;20261;-74
2022/06/20 03:47:01;;;;;;;0.90;0.87;;;;;;;12.69;100.00;100259.13;5090462;28;20545;-74
2022/06/20 03:49:33;;;;;;;0.67;0.67;;;;;;;12.68;100.00;100273.97;5090274;28;20174;-74
2022/06/20 03:52:10;;;;;;;0.30;0.30;;;;;;;12.66;100.00;100260.59;5091107;28;20173;-76
2022/06/20 03:54:43;;;;;;;0.90;0.90;;;;;;;12.65;100.00;100258.19;5090742;28;20173;-75
2022/06/20 03:57:15;;;;;;;0.40;0.40;;;;;;;12.58;100.00;100242.22;5090418;28;20178;-74
2022/06/20 03:59:44;;;;;;;0.27;0.27;;;;;;;12.57;100.00;100237.88;5090124;28;20201;-74
2022/06/20 04:02:17;;;;;;;0.10;0.10;;;;;;;12.61;100.00;100238.84;5090585;28;20181;-74
2022/06/20 04:04:50;;;;;;;0.10;0.10;;;;;;;12.62;100.00;100207.56;5090402;28;20650;-75
2022/06/20 04:07:24;;;;;;;0.10;0.10;;;;;;;12.59;100.00;100180.84;5090165;28;20188;-76
2022/06/20 04:12:58;;;;;;;0.10;0.10;;;;;;;12.61;100.00;100142.13;5090365;28;20218;-74
2022/06/20 04:15:31;;;;;;;0.00;0.00;;;;;;;12.64;100.00;100128.56;5090541;28;20181;-75
2022/06/20 04:18:28;;;;;;;0.00;0.00;;;;;;;12.55;100.00;100113.28;5089793;28;20177;-75
2022/06/20 04:21:03;;;;;;;0.00;0.00;;;;;;;12.69;100.00;100089.97;5090160;28;20209;-74
2022/06/20 04:23:57;;;;;;;0.00;0.00;;;;;;;12.75;100.00;100082.38;5090229;28;20263;-76
2022/06/20 04:26:35;;;;;;;0.00;0.00;;;;;;;12.81;100.00;100061.84;5090283;28;20170;-75
2022/06/20 04:29:17;;;;;;;0.00;0.00;;;;;;;12.74;100.00;100058.84;5090041;28;20211;-74
2022/06/20 04:31:55;;;;;;;0.00;0.00;;;;;;;12.51;100.00;100041.91;5090184;28;20182;-74
2022/06/20 04:34:30;;;;;;;0.00;0.00;;;;;;;12.39;100.00;100020.72;5090260;28;20183;-76
2022/06/20 04:36:58;;;;;;;0.07;0.07;;;;;;;12.26;100.00;99991.66;5089984;28;20170;-74
2022/06/20 04:39:37;;;;;;;0.27;0.27;;;;;;;12.19;100.00;99981.25;5088717;28;20182;-76
2022/06/20 04:42:21;;;;;;;0.10;0.10;;;;;;;12.26;100.00;99958.00;5093821;28;20169;-74
2022/06/20 04:45:25;;;;;;;0.00;0.00;;;;;;;12.04;100.00;99929.00;5093993;28;20680;-76
2022/06/20 04:48:16;;;;;;;0.00;0.00;;;;;;;12.14;100.00;99914.91;5089267;28;20262;-74
2022/06/20 04:50:46;;;;;;;0.00;0.00;;;;;;;12.12;100.00;99887.06;5094044;28;20651;-73
2022/06/20 04:53:20;;;;;;;0.30;0.30;;;;;;;12.06;100.00;99863.75;5093979;28;20541;-74
2022/06/20 04:55:49;;;;;;;0.00;0.00;;;;;;;12.08;100.00;99851.34;5093934;28;20668;-77
2022/06/20 04:58:19;;;;;;;0.37;0.37;;;;;;;11.93;100.00;99835.53;5093297;28;20186;-75
2022/06/20 05:00:47;;;;;;;0.87;0.57;;;;;;;11.89;100.00;99835.41;5093850;28;20680;-73
2022/06/20 05:03:16;;;;;;;1.43;0.87;;;;;;;11.98;100.00;99835.31;5093845;28;20181;-73
2022/06/20 05:05:44;;;;;;;0.17;0.17;;;;;;;11.98;100.00;99843.53;5093733;28;20713;-73
2022/06/20 05:08:12;;;;;;;1.40;0.60;;;;;;;11.92;100.00;99831.19;5093471;28;20209;-75
2022/06/20 05:10:47;;;;;;;0.20;0.20;;;;;;;12.00;100.00;99841.25;5093544;28;20170;-75
2022/06/20 05:13:38;;;;;;;0.00;0.00;;;;;;;12.04;100.00;99842.19;5093640;28;20202;-73
2022/06/20 05:16:08;;;;;;;0.00;0.00;;;;;;;12.16;100.00;99850.47;5093620;28;20205;-75
2022/06/20 05:18:40;;;;;;;0.00;0.00;;;;;;;12.14;100.00;99874.63;5092906;28;20630;-73
2022/06/20 05:21:29;;;;;;;0.00;0.00;;;;;;;12.33;100.00;99900.75;5093415;28;20245;-74
2022/06/20 05:23:59;;;;;;;0.00;0.00;;;;;;;12.50;100.00;99947.97;5093746;28;20182;-74
2022/06/20 05:26:32;;;;;;;1.70;1.07;;;;;;;12.54;100.00;99988.38;5093342;28;20170;-74
2022/06/20 05:29:01;;;;;;;0.00;0.00;;;;;;;12.49;100.00;100005.84;5092893;28;20648;-73
2022/06/20 05:31:37;;;;;;;0.00;0.00;;;;;;;12.59;100.00;100015.59;5093678;28;20633;-74
2022/06/20 05:34:44;;;;;;;0.00;0.00;;;;;;;12.67;100.00;100004.53;5093064;28;20657;-73
2022/06/20 05:37:19;;;;;;;0.00;0.00;;;;;;;12.66;100.00;99999.41;5092252;28;20260;-74
2022/06/20 05:39:53;;;;;;;0.00;0.00;;;;;;;12.75;100.00;100005.63;5092587;28;20202;-73
2022/06/20 05:42:19;;;;;;;0.10;0.10;;;;;;;12.85;100.00;100013.41;5093004;28;20174;-73
2022/06/20 05:44:45;;;;;;;0.00;0.00;;;;;;;12.96;100.00;100022.81;5092961;28;20197;-76
2022/06/20 05:47:30;;;;;;;0.00;0.00;;;;;;;13.01;100.00;100032.78;5092594;28;20197;-77
2022/06/20 05:50:04;;;;;;;0.00;0.00;;;;;;;13.04;100.00;100043.09;5074405;28;20193;-74
2022/06/20 05:52:32;;;;;;;0.27;0.27;;;;;;;13.12;100.00;100039.44;5074064;28;20647;-74
2022/06/20 05:55:05;;;;;;;0.00;0.00;;;;;;;13.05;100.00;100048.22;5092659;28;20517;-75
2022/06/20 05:57:33;;;;;;;0.13;0.13;;;;;;;12.88;100.00;100047.59;5092739;28;20256;-74
2022/06/20 06:00:20;;;;;;;0.00;0.00;;;;;;;12.92;100.00;100046.56;5092624;28;20307;-74
2022/06/20 06:02:57;;;;;;;0.00;0.00;;;;;;;13.07;100.00;100065.16;5070870;28;20642;-77
2022/06/20 06:05:33;;;;;;;0.00;0.00;;;;;;;13.11;100.00;100082.53;5072415;28;20222;-75
2022/06/20 06:08:11;;;;;;;4.63;1.33;;;;;;;13.14;100.00;100099.44;5071659;28;20646;-74
2022/06/20 06:10:52;;;;;;;0.97;0.23;;;;;;;13.09;100.00;100098.53;5072295;28;20179;-75
2022/06/20 06:13:24;;;;;;;0.10;0.10;;;;;;;13.07;100.00;100100.81;5072321;28;20174;-76
2022/06/20 06:19:11;;;;;;;0.27;0.27;;;;;;;13.02;100.00;100133.94;5051518;28;20186;-73
2022/06/20 06:21:37;;;;;;;0.03;0.03;;;;;;;13.02;100.00;100155.88;5051995;28;20280;-73
2022/06/20 06:24:05;;;;;;;0.93;0.77;;;;;;;12.98;100.00;100168.63;5052086;28;20627;-75
2022/06/20 06:26:33;;;;;;;0.30;0.30;;;;;;;12.90;100.00;100166.75;5051867;28;20175;-78
2022/06/20 06:28:58;;;;;;;0.93;0.93;;;;;;;12.84;100.00;100170.03;5051552;28;20171;-75
2022/06/20 06:31:28;;;;;;;15.93;2.23;;;;;;;12.80;100.00;100180.84;5051835;28;20582;-72
2022/06/20 06:34:03;;;;;;;3.00;0.43;;;;;;;12.74;100.00;100182.19;5051721;28;20171;-73
2022/06/20 06:36:54;;;;;;;0.23;0.23;;;;;;;12.73;100.00;100186.03;5051783;28;20627;-75
2022/06/20 06:39:48;;;;;;;0.10;0.10;;;;;;;12.75;100.00;100189.28;5050434;28;20210;-73
2022/06/20 06:42:15;;;;;;;0.00;0.00;;;;;;;12.75;100.00;100195.56;5051695;28;20175;-73
2022/06/20 06:44:43;;;;;;;1.13;1.00;;;;;;;12.75;100.00;100190.09;5051645;28;20211;-76
2022/06/20 06:47:42;;;;;;;0.10;0.10;;;;;;;12.65;100.00;100189.66;5051277;28;20195;-74
2022/06/20 06:50:36;;;;;;;0.80;0.80;;;;;;;12.52;100.00;100188.75;5051647;28;20679;-75
2022/06/20 06:53:09;;;;;;;0.33;0.33;;;;;;;12.38;100.00;100186.25;5051567;28;20205;-79
2022/06/20 06:55:46;;;;;;;0.10;0.10;;;;;;;12.41;100.00;100174.63;5051477;28;20540;-74
2022/06/20 06:58:22;;;;;;;0.00;0.00;;;;;;;12.45;100.00;100172.84;5050765;28;20166;-76
2022/06/20 07:01:03;;;;;;;4.60;1.30;;;;;;;12.51;100.00;100174.25;5051236;28;20211;-74
2022/06/20 07:03:37;;;;;;;0.10;0.10;;;;;;;12.42;100.00;100168.00;5051259;28;20183;-76
2022/06/20 07:06:09;;;;;;;3.97;0.87;;;;;;;12.44;100.00;100168.50;5051322;28;20396;-76
2022/06/20 07:08:45;;;;;;;0.70;0.47;;;;;;;12.42;100.00;100156.25;5050478;28;20589;-75
2022/06/20 07:11:21;;;;;;;0.00;0.00;;;;;;;12.35;100.00;100148.56;5051148;28;20262;-76
2022/06/20 07:14:16;;;;;;;0.13;0.13;;;;;;;12.39;100.00;100140.47;5051146;28;20228;-74
2022/06/20 07:16:48;;;;;;;0.00;0.00;;;;;;;12.38;100.00;100131.44;5052228;28;20175;-73
2022/06/20 07:19:14;;;;;;;0.67;0.20;;;;;;;12.33;100.00;100115.22;5050730;28;20179;-76
2022/06/20 07:21:42;;;;;;;12.17;1.23;;;;;;;12.27;100.00;100108.31;5051014;28;20618;-75
2022/06/20 07:24:13;;;;;;;0.00;0.00;;;;;;;12.24;100.00;100105.44;5050979;28;20244;-73
2022/06/20 07:26:46;;;;;;;0.00;0.00;;;;;;;12.31;100.00;100103.00;5050726;28;20171;-74
2022/06/20 07:29:16;;;;;;;0.00;0.00;;;;;;;12.42;100.00;100106.94;5050491;28;20203;-74
2022/06/20 07:31:50;;;;;;;0.00;0.00;;;;;;;12.45;100.00;100104.34;5050766;28;20179;-74
2022/06/20 07:34:28;;;;;;;0.00;0.00;;;;;;;12.51;100.00;100111.22;5050624;28;20175;-74
2022/06/20 07:37:01;;;;;;;0.20;0.20;;;;;;;12.43;100.00;100109.34;5050593;28;20596;-74
2022/06/20 07:39:37;;;;;;;0.20;0.20;;;;;;;12.46;100.00;100110.63;5049286;28;20244;-73
2022/06/20 07:42:14;;;;;;;0.27;0.27;;;;;;;12.45;100.00;100112.56;5050920;28;20190;-74
2022/06/20 07:44:48;;;;;;;0.10;0.10;;;;;;;12.34;100.00;100114.09;5050651;28;20176;-75
2022/06/20 07:47:21;;;;;;;0.20;0.20;;;;;;;12.37;100.00;100126.31;5050206;28;20187;-75
2022/06/20 07:49:52;;;;;;;0.00;0.00;;;;;;;12.35;100.00;100125.84;5050045;28;20258;-73
2022/06/20 07:53:04;;;;;;;0.00;0.00;;;;;;;12.51;100.00;100135.88;5050462;28;20179;-73
2022/06/20 07:55:32;;;;;;;0.00;0.00;;;;;;;12.54;100.00;100147.31;5049845;28;20185;-80
2022/06/20 07:58:09;;;;;;;0.00;0.00;;;;;;;12.57;100.00;100149.38;5050054;28;20745;-73
2022/06/20 08:00:42;;;;;;;2.07;2.00;;;;;;;12.60;100.00;100137.78;5050312;28;20202;-75
2022/06/20 08:03:39;;;;;;;0.00;0.00;;;;;;;12.61;100.00;100125.69;5050734;28;20174;-74
2022/06/20 08:06:23;;;;;;;0.00;0.00;;;;;;;12.55;100.00;100121.53;5034403;28;20191;-77
2022/06/20 08:08:58;;;;;;;0.00;0.00;;;;;;;12.54;100.00;100128.94;5049892;28;20274;-74
2022/06/20 08:11:41;;;;;;;0.37;0.37;;;;;;;12.66;100.00;100141.94;5050352;28;20185;-73
2022/06/20 08:14:25;;;;;;;0.30;0.30;;;;;;;12.74;100.00;100143.81;5050182;28;20179;-76
2022/06/20 08:16:53;;;;;;;1.03;0.93;;;;;;;12.72;100.00;100149.59;5049403;28;20515;-74
2022/06/20 08:19:20;;;;;;;0.00;0.00;;;;;;;12.69;100.00;100158.50;5049903;28;20171;-73
2022/06/20 08:21:53;;;;;;;0.57;0.50;;;;;;;12.71;100.00;100166.38;5050097;28;20213;-74
2022/06/20 08:24:30;;;;;;;0.60;0.60;;;;;;;12.67;100.00;100160.78;5050190;28;20256;-73
2022/06/20 08:27:03;;;;;;;0.03;0.03;;;;;;;12.67;100.00;100160.78;5049879;28;20178;-73
2022/06/20 08:29:39;;;;;;;0.20;0.20;;;;;;;12.61;100.00;100180.50;5049604;28;20182;-77
2022/06/20 08:32:30;;;;;;;22.27;1.23;;;;;;;12.62;100.00;100177.44;5050001;28;20270;-73
2022/06/20 08:35:07;;;;;;;0.00;0.00;;;;;;;12.63;100.00;100179.03;5050040;28;20175;-76
2022/06/20 08:37:40;;;;;;;0.00;0.00;;;;;;;12.70;100.00;100178.50;5048377;28;20167;-75
2022/06/20 08:40:43;;;;;;;0.00;0.00;;;;;;;12.71;100.00;100177.34;5049932;28;20192;-73
2022/06/20 08:43:53;;;;;;;0.07;0.07;;;;;;;12.75;100.00;100187.34;5049897;28;20183;-74
2022/06/20 08:46:46;;;;;;;17.10;0.53;;;;;;;12.82;100.00;100179.38;5050050;28;20179;-73
2022/06/20 08:49:29;;;;;;;0.40;0.40;;;;;;;12.80;100.00;100183.59;5049531;28;20699;-74
2022/06/20 08:52:22;;;;;;;1.23;1.17;;;;;;;12.90;100.00;100183.22;5049854;28;20171;-76
2022/06/20 08:55:19;;;;;;;0.00;0.00;;;;;;;13.00;100.00;100191.03;5049785;28;20202;-74
2022/06/20 08:57:55;;;;;;;2.07;1.00;;;;;;;12.97;100.00;100188.16;5049129;28;20548;-72
2022/06/20 09:01:07;;;;;;;0.23;0.23;;;;;;;13.00;100.00;100199.25;5050037;28;20293;-73
2022/06/20 09:04:18;;;;;;;2.70;0.53;;;;;;;13.07;100.00;100205.03;5029515;28;20183;-74
2022/06/20 09:07:06;;;;;;;0.43;0.43;;;;;;;13.27;100.00;100202.63;5049582;28;20282;-75
2022/06/20 09:09:47;;;;;;;0.23;0.23;;;;;;;13.28;100.00;100202.31;5038392;28;20215;-73
2022/06/20 09:12:29;;;;;;;0.80;0.80;;;;;;;13.28;100.00;100198.75;5049606;28;20276;-72
2022/06/20 09:15:04;;;;;;;0.00;0.00;;;;;;;13.44;100.00;100201.69;5049713;28;20164;-73
2022/06/20 09:17:47;;;;;;;0.00;0.00;;;;;;;13.51;100.00;100199.22;5049242;28;20187;-79
2022/06/20 09:20:46;;;;;;;2.37;0.90;;;;;;;13.55;100.00;100197.41;5049521;28;20191;-75
2022/06/20 09:23:11;;;;;;;0.43;0.43;;;;;;;13.55;100.00;100187.22;5049502;28;20258;-73
2022/06/20 09:25:51;;;;;;;0.07;0.07;;;;;;;13.61;100.00;100190.56;5049585;28;20258;-74
2022/06/20 09:28:44;;;;;;;0.97;0.97;;;;;;;13.59;100.00;100190.88;5051062;28;20232;-73
2022/06/20 09:31:12;;;;;;;0.00;0.00;;;;;;;13.68;100.00;100188.88;5053043;28;20175;-79
2022/06/20 09:33:44;;;;;;;0.10;0.10;;;;;;;13.80;100.00;100171.63;5052801;28;20175;-73
2022/06/20 09:36:18;;;;;;;0.97;0.97;;;;;;;13.90;100.00;100173.94;5052999;28;20171;-75
2022/06/20 09:39:15;;;;;;;0.43;0.43;;;;;;;14.02;100.00;100177.84;5050856;28;20164;-73
2022/06/20 09:41:40;;;;;;;0.50;0.50;;;;;;;14.05;100.00;100194.47;5053138;28;20289;-74
2022/06/20 09:44:22;;;;;;;3.50;2.77;;;;;;;14.12;100.00;100194.69;5052706;28;20290;-74
2022/06/20 09:46:54;;;;;;;0.30;0.30;;;;;;;14.07;100.00;100186.69;5052367;28;20195;-73
2022/06/20 09:49:32;;;;;;;0.97;0.77;;;;;;;14.22;100.00;100183.25;5052326;28;20175;-74
2022/06/20 09:52:15;;;;;;;0.00;0.00;;;;;;;14.26;100.00;100184.19;5052608;28;20563;-73
2022/06/20 09:55:01;;;;;;;1.53;0.83;;;;;;;14.44;100.00;100184.78;5052608;28;20209;-75
2022/06/20 09:57:41;;;;;;;0.93;0.77;;;;;;;14.54;100.00;100187.06;5052256;28;20229;-74
2022/06/20 10:00:16;;;;;;;2.17;1.43;;;;;;;14.46;99.35;100190.72;5052305;28;20195;-73
2022/06/20 10:02:52;;;;;;;2.03;1.93;;;;;;;14.46;95.85;100181.69;5034536;28;20178;-76
2022/06/20 10:05:40;;;;;;;0.00;0.00;;;;;;;14.62;96.22;100192.81;5052319;28;20202;-73
2022/06/20 10:08:30;;;;;;;0.00;0.00;;;;;;;14.92;97.21;100190.59;5051831;28;20824;-74
2022/06/20 10:11:17;;;;;;;1.17;1.17;;;;;;;14.98;95.01;100192.75;5052320;28;20175;-74
2022/06/20 10:13:54;;;;;;;1.70;1.30;;;;;;;15.04;93.10;100187.81;5052173;28;20175;-78
2022/06/20 10:16:19;;;;;;;0.60;0.40;;;;;;;15.26;91.11;100187.31;5052745;28;20179;-74
2022/06/20 10:19:16;;;;;;;0.00;0.00;;;;;;;15.57;90.40;100183.84;5051418;28;20221;-75
2022/06/20 10:21:47;;;;;;;0.37;0.37;;;;;;;15.86;89.05;100179.94;5051969;28;20742;-74
2022/06/20 10:24:19;;;;;;;0.90;0.90;;;;;;;16.03;87.94;100190.63;5052063;28;20183;-73
2022/06/20 10:26:56;;;;;;;0.43;0.43;;;;;;;15.94;83.44;100189.22;5051746;28;20600;-74
2022/06/20 10:29:40;;;;;;;0.00;0.00;;;;;;;15.95;85.34;100183.34;5051490;28;20657;-80
2022/06/20 10:32:18;;;;;;;0.00;0.00;;;;;;;15.76;85.98;100188.72;5052075;28;20230;-78
2022/06/20 10:35:08;;;;;;;0.97;0.97;;;;;;;15.52;nan;100197.88;5051769;28;20657;-74
2022/06/20 10:38:03;;;;;;;0.00;0.00;;;;;;;15.66;86.97;100192.81;5049502;28;20179;-77
2022/06/20 10:40:47;;;;;;;4.07;0.53;;;;;;;15.86;86.77;100201.19;5051813;28;20444;-79
2022/06/20 10:43:41;;;;;;;0.10;0.10;;;;;;;15.93;82.54;100201.38;5052080;28;20233;-77
2022/06/20 10:46:25;;;;;;;0.90;0.70;;;;;;;15.86;79.13;100217.72;5051744;28;20270;-75
2022/06/20 10:49:10;;;;;;;0.20;0.20;;;;;;;15.96;78.78;100215.25;5050931;28;20183;-74
2022/06/20 10:52:03;;;;;;;0.17;0.17;;;;;;;16.28;78.44;100207.81;5051530;28;20207;-74
2022/06/20 10:54:47;;;;;;;0.30;0.30;;;;;;;16.27;76.93;100195.19;5051036;28;20198;-74
2022/06/20 10:57:21;;;;;;;0.67;0.67;;;;;;;16.21;76.32;100213.16;5051265;28;20666;-72
2022/06/20 11:00:10;;;;;;;0.20;0.20;;;;;;;16.34;78.56;100214.66;5050956;28;20179;-74
2022/06/20 11:03:00;;;;;;;0.00;0.00;;;;;;;16.27;78.09;100214.47;5051366;28;20213;-73
2022/06/20 11:05:53;;;;;;;0.00;0.00;;;;;;;16.29;78.46;100205.84;5051164;28;20710;-74
2022/06/20 11:08:37;;;;;;;0.50;0.50;;;;;;;16.34;79.48;100211.88;5050553;28;20171;-73
2022/06/20 11:11:08;;;;;;;0.30;0.30;;;;;;;16.33;77.19;100217.75;5051190;28;20179;-74
2022/06/20 11:13:51;;;;;;;0.27;0.27;;;;;;;16.36;77.58;100217.88;5051258;28;20175;-74
2022/06/20 11:16:37;;;;;;;0.33;0.17;;;;;;;16.57;77.98;100212.06;5051438;28;20171;-74
2022/06/20 11:19:44;;;;;;;0.00;0.00;;;;;;;16.75;78.49;100211.72;5050538;28;20179;-75
2022/06/20 11:22:41;;;;;;;1.00;0.47;;;;;;;16.75;74.53;100215.28;5039928;28;20191;-73
2022/06/20 11:25:32;;;;;;;0.00;0.00;;;;;;;17.07;74.57;100213.28;5050886;28;20198;-75
2022/06/20 11:28:19;;;;;;;0.77;0.50;;;;;;;17.50;73.50;100206.69;5050213;28;20639;-73
2022/06/20 11:31:05;;;;;;;0.30;0.30;;;;;;;17.64;69.92;100208.13;5050919;28;20183;-74
2022/06/20 11:36:43;;;;;;;0.10;0.10;;;;;;;17.37;69.47;100199.72;5051005;28;20222;-73
2022/06/20 11:39:22;;;;;;;0.73;0.60;;;;;;;17.21;70.52;100201.72;5048802;28;20179;-74
2022/06/20 11:41:54;;;;;;;0.30;0.30;;;;;;;17.16;71.35;100200.03;5050514;28;20210;-74
2022/06/20 11:44:43;;;;;;;8.60;1.03;;;;;;;17.17;70.63;100198.88;5050642;28;20590;-73
2022/06/20 11:47:26;;;;;;;0.47;0.47;;;;;;;17.33;71.07;100198.81;5050207;28;20187;-75
2022/06/20 11:50:24;;;;;;;0.47;0.47;;;;;;;17.36;67.24;100200.88;5049577;28;20167;-73
2022/06/20 11:52:55;;;;;;;4.83;0.53;;;;;;;17.51;68.10;100196.44;5050410;28;20167;-74
2022/06/20 11:55:39;;;;;;;5.40;0.37;;;;;;;17.57;66.66;100203.25;5050547;28;20171;-75
2022/06/20 11:58:15;;;;;;;0.13;0.13;;;;;;;17.57;65.26;100203.25;5049698;28;20177;-75
2022/06/20 12:00:44;;;;;;;0.00;0.00;;;;;;;17.68;64.79;100201.53;5050343;28;20198;-73
2022/06/20 12:03:15;;;;;;;0.30;0.30;;;;;;;17.87;62.84;100200.72;5050247;28;20179;-75
2022/06/20 12:05:54;;;;;;;0.00;0.00;;;;;;;18.08;61.74;100205.81;5050416;28;20175;-75
2022/06/20 12:08:36;;;;;;;0.20;0.20;;;;;;;17.89;60.95;100201.13;5049655;28;20541;-75
2022/06/20 12:11:17;;;;;;;0.10;0.10;;;;;;;17.86;62.60;100206.59;5050405;28;20699;-75
2022/06/20 12:14:25;;;;;;;1.60;1.23;;;;;;;17.74;62.42;100208.38;5050313;28;20171;-74
2022/06/20 12:17:06;;;;;;;0.70;0.70;;;;;;;17.99;60.74;100200.53;5039945;28;20191;-73